Kezdőlap
METAR-TAF:

METAR-TAF

Repülőterek :

Orange Municipal Airport

Orange, Massachusetts, Amerikai Egyesült Államok

földrajzi szélesség: 42-34-18N, földrajzi hosszúság: 072-16-39W, magasság: 169 m

Jelenlegi meteorológiai megfigyelések

A jelentés 1 órával és 0 perccel ezelõtt készült, 04:59 UTC
Déli szél 4 kt
Hőmérséklet 22°C
Páratartalom 94%
Légköri nyomás 1015 hPa
Látótávolság: 16.1 km
Szakadozott felhőzet 1100 lábon

METAR: KORE 090459Z AUTO 18004KT 10SM BKN011 22/21 A2998 RMK AO2 T02220211

Idő: 01:59 (05:59 UTC)


TAF: hiányzik

Meteorológiai megfigyelések és előrejelzések több, mint 4000 repülőtéren (METAR és TAF jelentéseket).

A térképen piros és sárga pontok jelzik az elérhető meteorológiai állomásokat.

Mozgassa az egeret a pont fölött, hogy megjelenjen az állomás neve.

Azután kattintson az időjárási megfigyelések és előrejelzések megtekintéséhez.

A térkép megváltoztatása: kattintson a fekete keresztel jelölt zöld gombra ráközelítéshez, a vonallal jelölt zöld gombra távolításhoz, vagy a zöld nyilakra a szomszédos térképek eléréséhez.


METAR-TAF: